Terminal Aerodrome Forecast
Issued by NWS

Home | Current Version | Previous Version | Text Only | Print | Product List | Glossary On
Versions: 1 2 3 4 5 6 7 8 9 10 11 12 13 14 15 16 17 18 19 20 21 22
000
FTUS43 KDTX 011342 AAA
TAFDET
TAF AMD
KDET 011342Z 0114/0212 02009KT 2SM -DZ BR OVC004
     FM011600 02008KT 4SM BR OVC007
     FM011900 02008KT P6SM OVC015
     FM020500 04006KT 3SM RA BR OVC006
     FM020900 02006KT 4SM -RA BR OVC007
     FM021100 02006KT 5SM BR OVC007=

USA.gov is the U.S. government's official web portal to all federal, state and local government web resources and services.